sensor_id;sensor_type;location;lat;lon;timestamp;P1;durP1;ratioP1;P2;durP2;ratioP2
61675;SDS011;47574;52.090;5.244;2023-05-16T00:00:49;18.0;;;3.3;;
61675;SDS011;47574;52.090;5.244;2023-05-16T00:02:25;18.5;;;3.3;;
61675;SDS011;47574;52.090;5.244;2023-05-16T00:04:01;17.8;;;3.5;;
61675;SDS011;47574;52.090;5.244;2023-05-16T00:07:13;19.41;;;3.6;;
61675;SDS011;47574;52.090;5.244;2023-05-16T00:08:49;15.1;;;3.1;;
61675;SDS011;47574;52.090;5.244;2023-05-16T00:10:25;19.0;;;3.3;;
61675;SDS011;47574;52.090;5.244;2023-05-16T00:13:38;17.2;;;3.2;;
61675;SDS011;47574;52.090;5.244;2023-05-16T00:15:14;17.11;;;3.1;;
61675;SDS011;47574;52.090;5.244;2023-05-16T00:16:50;14.3;;;3.0;;
61675;SDS011;47574;52.090;5.244;2023-05-16T00:20:03;17.41;;;3.3;;
61675;SDS011;47574;52.090;5.244;2023-05-16T00:21:40;18.61;;;3.5;;
61675;SDS011;47574;52.090;5.244;2023-05-16T00:23:16;16.2;;;2.9;;
61675;SDS011;47574;52.090;5.244;2023-05-16T00:24:52;16.2;;;2.9;;
61675;SDS011;47574;52.090;5.244;2023-05-16T00:28:04;20.3;;;3.4;;
61675;SDS011;47574;52.090;5.244;2023-05-16T00:29:40;16.0;;;3.5;;
61675;SDS011;47574;52.090;5.244;2023-05-16T00:31:17;13.9;;;3.1;;
61675;SDS011;47574;52.090;5.244;2023-05-16T00:34:29;15.3;;;3.1;;
61675;SDS011;47574;52.090;5.244;2023-05-16T00:36:05;18.5;;;4.0;;
61675;SDS011;47574;52.090;5.244;2023-05-16T00:37:42;16.3;;;3.3;;
61675;SDS011;47574;52.090;5.244;2023-05-16T00:40:55;13.9;;;2.6;;
61675;SDS011;47574;52.090;5.244;2023-05-16T00:42:31;18.7;;;3.1;;
61675;SDS011;47574;52.090;5.244;2023-05-16T00:44:07;17.5;;;3.3;;
61675;SDS011;47574;52.090;5.244;2023-05-16T00:45:43;19.5;;;3.1;;
61675;SDS011;47574;52.090;5.244;2023-05-16T00:48:56;16.0;;;3.1;;
61675;SDS011;47574;52.090;5.244;2023-05-16T00:50:32;19.2;;;3.3;;
61675;SDS011;47574;52.090;5.244;2023-05-16T00:52:09;13.2;;;2.7;;
61675;SDS011;47574;52.090;5.244;2023-05-16T00:55:21;13.6;;;2.7;;
61675;SDS011;47574;52.090;5.244;2023-05-16T00:56:57;15.5;;;3.4;;
61675;SDS011;47574;52.090;5.244;2023-05-16T00:58:34;14.9;;;3.1;;
61675;SDS011;47574;52.090;5.244;2023-05-16T01:01:48;16.4;;;3.2;;
61675;SDS011;47574;52.090;5.244;2023-05-16T01:03:26;17.2;;;3.2;;
61675;SDS011;47574;52.090;5.244;2023-05-16T01:05:02;15.1;;;2.9;;
61675;SDS011;47574;52.090;5.244;2023-05-16T01:06:39;14.6;;;3.0;;
61675;SDS011;47574;52.090;5.244;2023-05-16T01:09:52;15.8;;;3.4;;
61675;SDS011;47574;52.090;5.244;2023-05-16T01:11:30;16.11;;;3.6;;
61675;SDS011;47574;52.090;5.244;2023-05-16T01:13:16;14.7;;;3.3;;
61675;SDS011;47574;52.090;5.244;2023-05-16T01:16:41;16.11;;;3.1;;
61675;SDS011;47574;52.090;5.244;2023-05-16T01:18:27;18.41;;;3.4;;
61675;SDS011;47574;52.090;5.244;2023-05-16T01:20:18;18.61;;;3.3;;
61675;SDS011;47574;52.090;5.244;2023-05-16T01:22:05;15.2;;;3.6;;
61675;SDS011;47574;52.090;5.244;2023-05-16T01:23:50;14.8;;;3.0;;
61675;SDS011;47574;52.090;5.244;2023-05-16T01:25:31;14.5;;;3.4;;
61675;SDS011;47574;52.090;5.244;2023-05-16T01:28:58;15.5;;;3.1;;
61675;SDS011;47574;52.090;5.244;2023-05-16T01:30:37;17.41;;;2.9;;
61675;SDS011;47574;52.090;5.244;2023-05-16T01:32:15;14.6;;;3.0;;
61675;SDS011;47574;52.090;5.244;2023-05-16T01:33:51;13.8;;;3.1;;
61675;SDS011;47574;52.090;5.244;2023-05-16T01:37:05;17.11;;;3.4;;
61675;SDS011;47574;52.090;5.244;2023-05-16T01:38:53;14.9;;;3.1;;
61675;SDS011;47574;52.090;5.244;2023-05-16T01:40:44;15.3;;;3.3;;
61675;SDS011;47574;52.090;5.244;2023-05-16T01:42:28;14.4;;;2.9;;
61675;SDS011;47574;52.090;5.244;2023-05-16T01:46:01;13.8;;;2.8;;
61675;SDS011;47574;52.090;5.244;2023-05-16T01:47:46;14.0;;;3.3;;
61675;SDS011;47574;52.090;5.244;2023-05-16T01:49:35;13.1;;;2.9;;
61675;SDS011;47574;52.090;5.244;2023-05-16T01:51:18;20.9;;;3.6;;
61675;SDS011;47574;52.090;5.244;2023-05-16T01:52:57;18.2;;;3.2;;
61675;SDS011;47574;52.090;5.244;2023-05-16T01:56:19;18.8;;;3.5;;
61675;SDS011;47574;52.090;5.244;2023-05-16T01:57:57;18.61;;;3.2;;
61675;SDS011;47574;52.090;5.244;2023-05-16T01:59:35;14.0;;;2.9;;
61675;SDS011;47574;52.090;5.244;2023-05-16T02:01:13;13.5;;;2.8;;
61675;SDS011;47574;52.090;5.244;2023-05-16T02:04:25;13.3;;;3.2;;
61675;SDS011;47574;52.090;5.244;2023-05-16T02:06:01;15.6;;;2.7;;
61675;SDS011;47574;52.090;5.244;2023-05-16T02:07:38;15.1;;;3.0;;
61675;SDS011;47574;52.090;5.244;2023-05-16T02:10:50;16.7;;;3.3;;
61675;SDS011;47574;52.090;5.244;2023-05-16T02:12:26;16.8;;;3.6;;
61675;SDS011;47574;52.090;5.244;2023-05-16T02:14:02;16.3;;;2.9;;
61675;SDS011;47574;52.090;5.244;2023-05-16T02:17:15;15.4;;;2.9;;
61675;SDS011;47574;52.090;5.244;2023-05-16T02:18:51;15.8;;;3.2;;
61675;SDS011;47574;52.090;5.244;2023-05-16T02:20:27;11.9;;;2.6;;
61675;SDS011;47574;52.090;5.244;2023-05-16T02:22:03;17.3;;;3.2;;
61675;SDS011;47574;52.090;5.244;2023-05-16T02:25:15;17.11;;;3.0;;
61675;SDS011;47574;52.090;5.244;2023-05-16T02:26:51;16.4;;;2.9;;
61675;SDS011;47574;52.090;5.244;2023-05-16T02:28:28;19.8;;;3.5;;
61675;SDS011;47574;52.090;5.244;2023-05-16T02:31:41;15.8;;;3.3;;
61675;SDS011;47574;52.090;5.244;2023-05-16T02:33:17;13.2;;;2.8;;
61675;SDS011;47574;52.090;5.244;2023-05-16T02:34:53;12.4;;;3.0;;
61675;SDS011;47574;52.090;5.244;2023-05-16T02:38:06;19.2;;;3.2;;
61675;SDS011;47574;52.090;5.244;2023-05-16T02:39:43;16.0;;;3.2;;
61675;SDS011;47574;52.090;5.244;2023-05-16T02:41:19;17.11;;;3.7;;
61675;SDS011;47574;52.090;5.244;2023-05-16T02:42:55;14.7;;;2.7;;
61675;SDS011;47574;52.090;5.244;2023-05-16T02:46:18;15.8;;;3.0;;
61675;SDS011;47574;52.090;5.244;2023-05-16T02:47:55;12.7;;;3.2;;
61675;SDS011;47574;52.090;5.244;2023-05-16T02:49:32;13.5;;;3.0;;
61675;SDS011;47574;52.090;5.244;2023-05-16T02:52:44;13.5;;;3.0;;
61675;SDS011;47574;52.090;5.244;2023-05-16T02:54:20;13.1;;;2.8;;
61675;SDS011;47574;52.090;5.244;2023-05-16T02:55:56;15.4;;;3.1;;
61675;SDS011;47574;52.090;5.244;2023-05-16T02:57:33;13.2;;;3.1;;
61675;SDS011;47574;52.090;5.244;2023-05-16T03:00:46;14.8;;;3.3;;
61675;SDS011;47574;52.090;5.244;2023-05-16T03:02:22;14.3;;;3.3;;
61675;SDS011;47574;52.090;5.244;2023-05-16T03:03:58;14.6;;;2.7;;
61675;SDS011;47574;52.090;5.244;2023-05-16T03:07:10;14.2;;;3.0;;
61675;SDS011;47574;52.090;5.244;2023-05-16T03:08:47;16.2;;;2.6;;
61675;SDS011;47574;52.090;5.244;2023-05-16T03:10:23;17.0;;;2.8;;
61675;SDS011;47574;52.090;5.244;2023-05-16T03:13:35;16.9;;;2.9;;
61675;SDS011;47574;52.090;5.244;2023-05-16T03:15:11;13.4;;;3.1;;
61675;SDS011;47574;52.090;5.244;2023-05-16T03:16:47;12.2;;;3.0;;
61675;SDS011;47574;52.090;5.244;2023-05-16T03:19:59;12.9;;;2.8;;
61675;SDS011;47574;52.090;5.244;2023-05-16T03:21:35;14.5;;;2.9;;
61675;SDS011;47574;52.090;5.244;2023-05-16T03:23:11;11.6;;;3.4;;
61675;SDS011;47574;52.090;5.244;2023-05-16T03:24:47;11.7;;;2.7;;
61675;SDS011;47574;52.090;5.244;2023-05-16T03:28:00;13.0;;;2.8;;
61675;SDS011;47574;52.090;5.244;2023-05-16T03:29:36;17.91;;;3.0;;
61675;SDS011;47574;52.090;5.244;2023-05-16T03:31:12;12.9;;;3.0;;
61675;SDS011;47574;52.090;5.244;2023-05-16T03:34:24;14.6;;;3.3;;
61675;SDS011;47574;52.090;5.244;2023-05-16T03:36:00;16.61;;;3.0;;
61675;SDS011;47574;52.090;5.244;2023-05-16T03:37:37;13.7;;;3.3;;
61675;SDS011;47574;52.090;5.244;2023-05-16T03:40:49;14.7;;;3.3;;
61675;SDS011;47574;52.090;5.244;2023-05-16T03:42:25;16.2;;;3.2;;
61675;SDS011;47574;52.090;5.244;2023-05-16T03:44:01;16.11;;;2.9;;
61675;SDS011;47574;52.090;5.244;2023-05-16T03:45:37;16.11;;;2.7;;
61675;SDS011;47574;52.090;5.244;2023-05-16T03:48:50;13.5;;;3.0;;
61675;SDS011;47574;52.090;5.244;2023-05-16T03:50:26;12.5;;;3.1;;
61675;SDS011;47574;52.090;5.244;2023-05-16T03:52:02;12.8;;;2.7;;
61675;SDS011;47574;52.090;5.244;2023-05-16T03:55:14;14.3;;;2.31;;
61675;SDS011;47574;52.090;5.244;2023-05-16T03:56:51;16.3;;;2.9;;
61675;SDS011;47574;52.090;5.244;2023-05-16T03:58:27;13.1;;;2.9;;
61675;SDS011;47574;52.090;5.244;2023-05-16T04:01:42;15.2;;;2.7;;
61675;SDS011;47574;52.090;5.244;2023-05-16T04:03:18;13.8;;;2.9;;
61675;SDS011;47574;52.090;5.244;2023-05-16T04:04:54;17.11;;;3.0;;
61675;SDS011;47574;52.090;5.244;2023-05-16T04:08:07;16.8;;;3.2;;
61675;SDS011;47574;52.090;5.244;2023-05-16T04:09:43;11.3;;;3.2;;
61675;SDS011;47574;52.090;5.244;2023-05-16T04:11:19;13.8;;;2.7;;
61675;SDS011;47574;52.090;5.244;2023-05-16T04:12:55;14.2;;;2.9;;
61675;SDS011;47574;52.090;5.244;2023-05-16T04:16:10;12.3;;;2.7;;
61675;SDS011;47574;52.090;5.244;2023-05-16T04:17:46;16.2;;;3.1;;
61675;SDS011;47574;52.090;5.244;2023-05-16T04:19:22;16.11;;;2.9;;
61675;SDS011;47574;52.090;5.244;2023-05-16T04:22:34;16.11;;;2.9;;
61675;SDS011;47574;52.090;5.244;2023-05-16T04:24:10;11.7;;;2.7;;
61675;SDS011;47574;52.090;5.244;2023-05-16T04:25:47;12.3;;;2.6;;
61675;SDS011;47574;52.090;5.244;2023-05-16T04:28:59;17.2;;;3.1;;
61675;SDS011;47574;52.090;5.244;2023-05-16T04:30:35;17.5;;;2.9;;
61675;SDS011;47574;52.090;5.244;2023-05-16T04:32:11;15.0;;;2.9;;
61675;SDS011;47574;52.090;5.244;2023-05-16T04:33:47;12.2;;;2.6;;
61675;SDS011;47574;52.090;5.244;2023-05-16T04:37:01;11.3;;;2.5;;
61675;SDS011;47574;52.090;5.244;2023-05-16T04:38:38;14.8;;;2.6;;
61675;SDS011;47574;52.090;5.244;2023-05-16T04:40:14;11.1;;;2.6;;
61675;SDS011;47574;52.090;5.244;2023-05-16T04:43:26;13.9;;;2.8;;
61675;SDS011;47574;52.090;5.244;2023-05-16T04:45:03;15.9;;;2.9;;
61675;SDS011;47574;52.090;5.244;2023-05-16T04:46:40;11.5;;;2.4;;
61675;SDS011;47574;52.090;5.244;2023-05-16T04:49:52;12.1;;;2.8;;
61675;SDS011;47574;52.090;5.244;2023-05-16T04:51:28;12.9;;;2.9;;
61675;SDS011;47574;52.090;5.244;2023-05-16T04:53:04;13.2;;;2.6;;
61675;SDS011;47574;52.090;5.244;2023-05-16T04:54:40;15.3;;;3.1;;
61675;SDS011;47574;52.090;5.244;2023-05-16T04:57:53;10.21;;;2.31;;
61675;SDS011;47574;52.090;5.244;2023-05-16T04:59:29;13.0;;;2.9;;
61675;SDS011;47574;52.090;5.244;2023-05-16T05:01:05;12.7;;;2.31;;
61675;SDS011;47574;52.090;5.244;2023-05-16T05:04:18;14.4;;;2.6;;
61675;SDS011;47574;52.090;5.244;2023-05-16T05:05:54;12.6;;;2.8;;
61675;SDS011;47574;52.090;5.244;2023-05-16T05:07:30;12.6;;;2.31;;
61675;SDS011;47574;52.090;5.244;2023-05-16T05:10:43;11.7;;;2.31;;
61675;SDS011;47574;52.090;5.244;2023-05-16T05:12:19;13.4;;;2.8;;
61675;SDS011;47574;52.090;5.244;2023-05-16T05:13:56;14.4;;;2.6;;
61675;SDS011;47574;52.090;5.244;2023-05-16T05:17:08;13.1;;;2.7;;
61675;SDS011;47574;52.090;5.244;2023-05-16T05:18:44;9.71;;;2.31;;
61675;SDS011;47574;52.090;5.244;2023-05-16T05:20:20;10.6;;;2.6;;
61675;SDS011;47574;52.090;5.244;2023-05-16T05:21:56;12.5;;;2.5;;
61675;SDS011;47574;52.090;5.244;2023-05-16T05:25:09;14.8;;;2.9;;
61675;SDS011;47574;52.090;5.244;2023-05-16T05:26:45;13.7;;;2.8;;
61675;SDS011;47574;52.090;5.244;2023-05-16T05:28:21;11.6;;;2.4;;
61675;SDS011;47574;52.090;5.244;2023-05-16T05:31:32;12.7;;;2.8;;
61675;SDS011;47574;52.090;5.244;2023-05-16T05:33:09;14.8;;;2.7;;
61675;SDS011;47574;52.090;5.244;2023-05-16T05:34:46;13.0;;;2.4;;
61675;SDS011;47574;52.090;5.244;2023-05-16T05:37:59;12.6;;;2.4;;
61675;SDS011;47574;52.090;5.244;2023-05-16T05:39:35;13.9;;;2.8;;
61675;SDS011;47574;52.090;5.244;2023-05-16T05:41:11;11.6;;;2.6;;
61675;SDS011;47574;52.090;5.244;2023-05-16T05:42:48;12.7;;;2.7;;
61675;SDS011;47574;52.090;5.244;2023-05-16T05:46:00;14.3;;;2.6;;
61675;SDS011;47574;52.090;5.244;2023-05-16T05:47:36;14.1;;;2.4;;
61675;SDS011;47574;52.090;5.244;2023-05-16T05:49:12;11.0;;;2.21;;
61675;SDS011;47574;52.090;5.244;2023-05-16T05:52:25;11.2;;;2.5;;
61675;SDS011;47574;52.090;5.244;2023-05-16T05:54:01;12.9;;;2.5;;
61675;SDS011;47574;52.090;5.244;2023-05-16T05:55:38;11.9;;;2.7;;
61675;SDS011;47574;52.090;5.244;2023-05-16T05:58:50;12.3;;;3.1;;
61675;SDS011;47574;52.090;5.244;2023-05-16T06:00:26;11.1;;;2.21;;
61675;SDS011;47574;52.090;5.244;2023-05-16T06:02:03;11.7;;;2.7;;
61675;SDS011;47574;52.090;5.244;2023-05-16T06:05:15;11.5;;;2.7;;
61675;SDS011;47574;52.090;5.244;2023-05-16T06:06:51;14.2;;;2.7;;
61675;SDS011;47574;52.090;5.244;2023-05-16T06:08:27;11.8;;;2.31;;
61675;SDS011;47574;52.090;5.244;2023-05-16T06:10:04;11.9;;;2.6;;
61675;SDS011;47574;52.090;5.244;2023-05-16T06:13:17;9.5;;;2.5;;
61675;SDS011;47574;52.090;5.244;2023-05-16T06:14:53;15.3;;;2.9;;
61675;SDS011;47574;52.090;5.244;2023-05-16T06:16:29;12.5;;;2.21;;
61675;SDS011;47574;52.090;5.244;2023-05-16T06:19:42;12.8;;;3.0;;
61675;SDS011;47574;52.090;5.244;2023-05-16T06:21:18;11.7;;;2.21;;
61675;SDS011;47574;52.090;5.244;2023-05-16T06:22:54;8.9;;;2.31;;
61675;SDS011;47574;52.090;5.244;2023-05-16T06:26:06;8.71;;;1.9;;
61675;SDS011;47574;52.090;5.244;2023-05-16T06:27:42;10.7;;;2.0;;
61675;SDS011;47574;52.090;5.244;2023-05-16T06:29:19;8.4;;;1.9;;
61675;SDS011;47574;52.090;5.244;2023-05-16T06:30:55;9.9;;;1.9;;
61675;SDS011;47574;52.090;5.244;2023-05-16T06:34:07;11.3;;;2.1;;
61675;SDS011;47574;52.090;5.244;2023-05-16T06:35:43;12.4;;;2.4;;
61675;SDS011;47574;52.090;5.244;2023-05-16T06:37:19;8.9;;;2.0;;
61675;SDS011;47574;52.090;5.244;2023-05-16T06:40:33;8.9;;;2.0;;
61675;SDS011;47574;52.090;5.244;2023-05-16T06:42:09;11.2;;;2.4;;
61675;SDS011;47574;52.090;5.244;2023-05-16T06:43:45;10.8;;;2.6;;
61675;SDS011;47574;52.090;5.244;2023-05-16T06:46:57;10.8;;;2.21;;
61675;SDS011;47574;52.090;5.244;2023-05-16T06:48:34;11.4;;;2.5;;
61675;SDS011;47574;52.090;5.244;2023-05-16T06:50:10;13.8;;;2.9;;
61675;SDS011;47574;52.090;5.244;2023-05-16T06:53:22;13.1;;;1.8;;
61675;SDS011;47574;52.090;5.244;2023-05-16T06:54:58;7.4;;;2.1;;
61675;SDS011;47574;52.090;5.244;2023-05-16T06:56:34;9.21;;;1.7;;
61675;SDS011;47574;52.090;5.244;2023-05-16T06:58:11;10.3;;;2.21;;
61675;SDS011;47574;52.090;5.244;2023-05-16T07:01:23;8.4;;;1.9;;
61675;SDS011;47574;52.090;5.244;2023-05-16T07:02:59;4.61;;;1.5;;
61675;SDS011;47574;52.090;5.244;2023-05-16T07:04:34;8.2;;;1.8;;
61675;SDS011;47574;52.090;5.244;2023-05-16T07:07:47;8.31;;;1.7;;
61675;SDS011;47574;52.090;5.244;2023-05-16T07:09:23;6.9;;;1.4;;
61675;SDS011;47574;52.090;5.244;2023-05-16T07:10:59;8.4;;;1.5;;
61675;SDS011;47574;52.090;5.244;2023-05-16T07:14:12;6.8;;;1.6;;
61675;SDS011;47574;52.090;5.244;2023-05-16T07:15:48;8.1;;;1.5;;
61675;SDS011;47574;52.090;5.244;2023-05-16T07:17:24;8.1;;;1.2;;
61675;SDS011;47574;52.090;5.244;2023-05-16T07:20:36;6.4;;;2.0;;
61675;SDS011;47574;52.090;5.244;2023-05-16T07:22:12;9.1;;;2.1;;
61675;SDS011;47574;52.090;5.244;2023-05-16T07:23:49;5.3;;;1.3;;
61675;SDS011;47574;52.090;5.244;2023-05-16T07:25:25;9.4;;;1.4;;
61675;SDS011;47574;52.090;5.244;2023-05-16T07:28:37;6.2;;;1.4;;
61675;SDS011;47574;52.090;5.244;2023-05-16T07:30:13;10.3;;;1.6;;
61675;SDS011;47574;52.090;5.244;2023-05-16T07:31:50;5.5;;;1.4;;
61675;SDS011;47574;52.090;5.244;2023-05-16T07:35:02;7.6;;;1.5;;
61675;SDS011;47574;52.090;5.244;2023-05-16T07:36:39;7.5;;;1.7;;
61675;SDS011;47574;52.090;5.244;2023-05-16T07:38:16;10.0;;;1.6;;
61675;SDS011;47574;52.090;5.244;2023-05-16T07:41:29;7.7;;;1.4;;
61675;SDS011;47574;52.090;5.244;2023-05-16T07:43:06;5.8;;;1.4;;
61675;SDS011;47574;52.090;5.244;2023-05-16T07:44:42;5.8;;;1.5;;
61675;SDS011;47574;52.090;5.244;2023-05-16T07:46:18;6.8;;;1.5;;
61675;SDS011;47574;52.090;5.244;2023-05-16T07:49:30;4.61;;;1.3;;
61675;SDS011;47574;52.090;5.244;2023-05-16T07:51:07;8.6;;;1.4;;
61675;SDS011;47574;52.090;5.244;2023-05-16T07:52:43;4.8;;;1.11;;
61675;SDS011;47574;52.090;5.244;2023-05-16T07:55:55;7.8;;;1.5;;
61675;SDS011;47574;52.090;5.244;2023-05-16T07:57:31;11.9;;;1.8;;
61675;SDS011;47574;52.090;5.244;2023-05-16T07:59:07;8.31;;;2.21;;
61675;SDS011;47574;52.090;5.244;2023-05-16T08:02:20;7.5;;;1.6;;
61675;SDS011;47574;52.090;5.244;2023-05-16T08:03:57;6.7;;;1.3;;
61675;SDS011;47574;52.090;5.244;2023-05-16T08:05:33;7.8;;;1.6;;
61675;SDS011;47574;52.090;5.244;2023-05-16T08:07:09;5.9;;;1.7;;
61675;SDS011;47574;52.090;5.244;2023-05-16T08:10:21;9.31;;;1.8;;
61675;SDS011;47574;52.090;5.244;2023-05-16T08:11:58;6.6;;;1.4;;
61675;SDS011;47574;52.090;5.244;2023-05-16T08:13:34;5.8;;;1.4;;
61675;SDS011;47574;52.090;5.244;2023-05-16T08:16:46;5.9;;;1.5;;
61675;SDS011;47574;52.090;5.244;2023-05-16T08:18:22;7.2;;;1.6;;
61675;SDS011;47574;52.090;5.244;2023-05-16T08:19:58;5.4;;;1.5;;
61675;SDS011;47574;52.090;5.244;2023-05-16T08:23:11;6.3;;;1.5;;
61675;SDS011;47574;52.090;5.244;2023-05-16T08:24:49;8.31;;;1.4;;
61675;SDS011;47574;52.090;5.244;2023-05-16T08:26:25;8.4;;;1.8;;
61675;SDS011;47574;52.090;5.244;2023-05-16T08:29:38;5.5;;;1.3;;
61675;SDS011;47574;52.090;5.244;2023-05-16T08:31:14;5.5;;;1.4;;
61675;SDS011;47574;52.090;5.244;2023-05-16T08:32:50;9.81;;;1.5;;
61675;SDS011;47574;52.090;5.244;2023-05-16T08:34:26;6.7;;;1.2;;
61675;SDS011;47574;52.090;5.244;2023-05-16T08:37:42;6.9;;;1.6;;
61675;SDS011;47574;52.090;5.244;2023-05-16T08:39:19;5.5;;;1.4;;
61675;SDS011;47574;52.090;5.244;2023-05-16T08:40:55;5.6;;;1.0;;
61675;SDS011;47574;52.090;5.244;2023-05-16T08:44:08;6.9;;;1.5;;
61675;SDS011;47574;52.090;5.244;2023-05-16T08:45:44;6.1;;;1.5;;
61675;SDS011;47574;52.090;5.244;2023-05-16T08:47:20;5.2;;;1.0;;
61675;SDS011;47574;52.090;5.244;2023-05-16T08:49:01;6.9;;;1.3;;
61675;SDS011;47574;52.090;5.244;2023-05-16T08:52:16;4.91;;;1.3;;
61675;SDS011;47574;52.090;5.244;2023-05-16T08:53:56;5.0;;;1.4;;
61675;SDS011;47574;52.090;5.244;2023-05-16T08:55:37;5.2;;;1.2;;
61675;SDS011;47574;52.090;5.244;2023-05-16T08:58:53;5.0;;;1.3;;
61675;SDS011;47574;52.090;5.244;2023-05-16T09:00:30;4.91;;;1.2;;
61675;SDS011;47574;52.090;5.244;2023-05-16T09:02:06;6.4;;;1.3;;
61675;SDS011;47574;52.090;5.244;2023-05-16T09:03:43;5.6;;;1.4;;
61675;SDS011;47574;52.090;5.244;2023-05-16T09:06:58;6.0;;;1.3;;
61675;SDS011;47574;52.090;5.244;2023-05-16T09:08:34;7.5;;;1.4;;
61675;SDS011;47574;52.090;5.244;2023-05-16T09:10:10;5.2;;;1.2;;
61675;SDS011;47574;52.090;5.244;2023-05-16T09:13:24;8.9;;;1.2;;
61675;SDS011;47574;52.090;5.244;2023-05-16T09:15:00;3.2;;;0.9;;
61675;SDS011;47574;52.090;5.244;2023-05-16T09:16:39;7.0;;;1.3;;
61675;SDS011;47574;52.090;5.244;2023-05-16T09:19:51;4.3;;;1.3;;
61675;SDS011;47574;52.090;5.244;2023-05-16T09:21:28;6.5;;;1.5;;
61675;SDS011;47574;52.090;5.244;2023-05-16T09:23:05;5.0;;;1.3;;
61675;SDS011;47574;52.090;5.244;2023-05-16T09:24:42;4.5;;;1.4;;
61675;SDS011;47574;52.090;5.244;2023-05-16T09:27:57;5.6;;;1.11;;
61675;SDS011;47574;52.090;5.244;2023-05-16T09:29:35;5.4;;;1.2;;
61675;SDS011;47574;52.090;5.244;2023-05-16T09:31:19;7.5;;;1.5;;
61675;SDS011;47574;52.090;5.244;2023-05-16T09:32:56;4.1;;;1.11;;
61675;SDS011;47574;52.090;5.244;2023-05-16T09:36:13;5.3;;;1.2;;
61675;SDS011;47574;52.090;5.244;2023-05-16T09:37:50;4.7;;;1.0;;
61675;SDS011;47574;52.090;5.244;2023-05-16T09:39:26;5.0;;;1.2;;
61675;SDS011;47574;52.090;5.244;2023-05-16T09:42:38;6.4;;;1.5;;
61675;SDS011;47574;52.090;5.244;2023-05-16T09:44:15;6.5;;;1.7;;
61675;SDS011;47574;52.090;5.244;2023-05-16T09:45:53;5.3;;;1.2;;
61675;SDS011;47574;52.090;5.244;2023-05-16T09:49:05;3.9;;;1.3;;
61675;SDS011;47574;52.090;5.244;2023-05-16T09:50:45;5.7;;;1.2;;
61675;SDS011;47574;52.090;5.244;2023-05-16T09:52:25;4.5;;;1.4;;
61675;SDS011;47574;52.090;5.244;2023-05-16T09:54:01;6.7;;;1.3;;
61675;SDS011;47574;52.090;5.244;2023-05-16T09:57:18;4.8;;;1.0;;
61675;SDS011;47574;52.090;5.244;2023-05-16T09:58:54;4.0;;;1.2;;
61675;SDS011;47574;52.090;5.244;2023-05-16T10:00:30;6.5;;;1.4;;
61675;SDS011;47574;52.090;5.244;2023-05-16T10:03:45;6.4;;;1.8;;
61675;SDS011;47574;52.090;5.244;2023-05-16T10:05:22;10.6;;;2.0;;
61675;SDS011;47574;52.090;5.244;2023-05-16T10:07:00;7.5;;;1.7;;
61675;SDS011;47574;52.090;5.244;2023-05-16T10:08:38;5.11;;;1.3;;
61675;SDS011;47574;52.090;5.244;2023-05-16T10:11:54;7.6;;;1.8;;
61675;SDS011;47574;52.090;5.244;2023-05-16T10:13:32;6.6;;;1.5;;
61675;SDS011;47574;52.090;5.244;2023-05-16T10:15:10;5.2;;;1.3;;
61675;SDS011;47574;52.090;5.244;2023-05-16T10:18:27;5.4;;;1.5;;
61675;SDS011;47574;52.090;5.244;2023-05-16T10:20:06;6.0;;;1.5;;
61675;SDS011;47574;52.090;5.244;2023-05-16T10:21:47;7.2;;;1.9;;
61675;SDS011;47574;52.090;5.244;2023-05-16T10:23:27;6.7;;;1.6;;
61675;SDS011;47574;52.090;5.244;2023-05-16T10:26:50;7.2;;;1.7;;
61675;SDS011;47574;52.090;5.244;2023-05-16T10:28:27;7.2;;;1.5;;
61675;SDS011;47574;52.090;5.244;2023-05-16T10:30:04;7.0;;;1.7;;
61675;SDS011;47574;52.090;5.244;2023-05-16T10:31:42;4.1;;;1.2;;
61675;SDS011;47574;52.090;5.244;2023-05-16T10:34:55;7.8;;;1.2;;
61675;SDS011;47574;52.090;5.244;2023-05-16T10:36:31;5.11;;;1.3;;
61675;SDS011;47574;52.090;5.244;2023-05-16T10:38:08;4.7;;;1.11;;
61675;SDS011;47574;52.090;5.244;2023-05-16T10:41:22;11.8;;;1.6;;
61675;SDS011;47574;52.090;5.244;2023-05-16T10:43:00;5.5;;;1.6;;
61675;SDS011;47574;52.090;5.244;2023-05-16T10:44:38;5.8;;;1.6;;
61675;SDS011;47574;52.090;5.244;2023-05-16T10:46:14;8.71;;;1.7;;
61675;SDS011;47574;52.090;5.244;2023-05-16T10:49:29;7.0;;;2.21;;
61675;SDS011;47574;52.090;5.244;2023-05-16T10:51:32;5.3;;;1.2;;
61675;SDS011;47574;52.090;5.244;2023-05-16T10:53:18;4.8;;;1.3;;
61675;SDS011;47574;52.090;5.244;2023-05-16T10:54:56;4.91;;;1.11;;
61675;SDS011;47574;52.090;5.244;2023-05-16T10:56:38;6.1;;;1.2;;
61675;SDS011;47574;52.090;5.244;2023-05-16T10:59:57;8.5;;;2.21;;
61675;SDS011;47574;52.090;5.244;2023-05-16T11:01:33;8.5;;;1.3;;
61675;SDS011;47574;52.090;5.244;2023-05-16T11:03:18;4.91;;;1.3;;
61675;SDS011;47574;52.090;5.244;2023-05-16T11:04:58;3.4;;;1.0;;
61675;SDS011;47574;52.090;5.244;2023-05-16T11:08:28;3.9;;;1.4;;
61675;SDS011;47574;52.090;5.244;2023-05-16T11:10:05;4.0;;;1.3;;
61675;SDS011;47574;52.090;5.244;2023-05-16T11:11:45;6.1;;;1.3;;
61675;SDS011;47574;52.090;5.244;2023-05-16T11:13:23;5.8;;;1.2;;
61675;SDS011;47574;52.090;5.244;2023-05-16T11:16:35;5.6;;;1.11;;
61675;SDS011;47574;52.090;5.244;2023-05-16T11:18:14;5.2;;;1.11;;
61675;SDS011;47574;52.090;5.244;2023-05-16T11:19:54;4.5;;;1.4;;
61675;SDS011;47574;52.090;5.244;2023-05-16T11:24:29;4.5;;;1.3;;
61675;SDS011;47574;52.090;5.244;2023-05-16T11:26:07;5.11;;;1.4;;
61675;SDS011;47574;52.090;5.244;2023-05-16T11:29:22;5.5;;;1.7;;
61675;SDS011;47574;52.090;5.244;2023-05-16T11:30:59;4.61;;;1.2;;
61675;SDS011;47574;52.090;5.244;2023-05-16T11:32:37;6.5;;;2.4;;
61675;SDS011;47574;52.090;5.244;2023-05-16T11:34:16;5.4;;;1.9;;
61675;SDS011;47574;52.090;5.244;2023-05-16T11:37:37;5.7;;;1.2;;
61675;SDS011;47574;52.090;5.244;2023-05-16T11:39:14;5.5;;;1.4;;
61675;SDS011;47574;52.090;5.244;2023-05-16T11:40:50;4.61;;;1.5;;
61675;SDS011;47574;52.090;5.244;2023-05-16T11:44:05;4.61;;;1.5;;
61675;SDS011;47574;52.090;5.244;2023-05-16T11:45:41;5.0;;;1.4;;
61675;SDS011;47574;52.090;5.244;2023-05-16T11:47:17;5.6;;;1.4;;
61675;SDS011;47574;52.090;5.244;2023-05-16T11:50:29;5.5;;;1.9;;
61675;SDS011;47574;52.090;5.244;2023-05-16T11:52:08;4.61;;;1.8;;
61675;SDS011;47574;52.090;5.244;2023-05-16T11:53:45;4.41;;;1.5;;
61675;SDS011;47574;52.090;5.244;2023-05-16T11:55:23;5.9;;;1.7;;
61675;SDS011;47574;52.090;5.244;2023-05-16T11:58:37;5.5;;;2.0;;
61675;SDS011;47574;52.090;5.244;2023-05-16T12:00:14;2.7;;;1.3;;
61675;SDS011;47574;52.090;5.244;2023-05-16T12:01:52;7.5;;;1.9;;
61675;SDS011;47574;52.090;5.244;2023-05-16T12:05:06;6.2;;;1.6;;
61675;SDS011;47574;52.090;5.244;2023-05-16T12:06:43;8.1;;;1.8;;
61675;SDS011;47574;52.090;5.244;2023-05-16T12:08:19;7.5;;;1.9;;
61675;SDS011;47574;52.090;5.244;2023-05-16T12:09:56;6.0;;;1.6;;
61675;SDS011;47574;52.090;5.244;2023-05-16T12:13:09;4.7;;;1.5;;
61675;SDS011;47574;52.090;5.244;2023-05-16T12:14:46;5.11;;;1.4;;
61675;SDS011;47574;52.090;5.244;2023-05-16T12:16:22;5.4;;;1.6;;
61675;SDS011;47574;52.090;5.244;2023-05-16T12:19:34;5.3;;;1.6;;
61675;SDS011;47574;52.090;5.244;2023-05-16T12:21:11;5.4;;;1.6;;
61675;SDS011;47574;52.090;5.244;2023-05-16T12:22:48;7.3;;;2.1;;
61675;SDS011;47574;52.090;5.244;2023-05-16T12:26:05;7.1;;;1.6;;
61675;SDS011;47574;52.090;5.244;2023-05-16T12:27:41;7.1;;;1.6;;
61675;SDS011;47574;52.090;5.244;2023-05-16T12:29:17;6.1;;;1.6;;
61675;SDS011;47574;52.090;5.244;2023-05-16T12:30:55;6.9;;;1.6;;
61675;SDS011;47574;52.090;5.244;2023-05-16T12:34:14;6.2;;;1.6;;
61675;SDS011;47574;52.090;5.244;2023-05-16T12:35:50;5.8;;;1.6;;
61675;SDS011;47574;52.090;5.244;2023-05-16T12:37:26;6.7;;;1.5;;
61675;SDS011;47574;52.090;5.244;2023-05-16T12:40:40;6.2;;;1.8;;
61675;SDS011;47574;52.090;5.244;2023-05-16T12:42:18;6.6;;;2.1;;
61675;SDS011;47574;52.090;5.244;2023-05-16T12:44:04;6.6;;;1.6;;
61675;SDS011;47574;52.090;5.244;2023-05-16T12:45:41;6.9;;;1.7;;
61675;SDS011;47574;52.090;5.244;2023-05-16T12:49:09;7.6;;;1.9;;
61675;SDS011;47574;52.090;5.244;2023-05-16T12:50:46;7.0;;;1.7;;
61675;SDS011;47574;52.090;5.244;2023-05-16T12:52:23;7.5;;;1.6;;